HXA3366 ZBHH-ZBCF
Flight info
| Callsign | HXA3366 |
|---|---|
| Flight time | 1h 0m |
| Altitude | 26600 |
| Route | TMR W86 KAKAT |
| Aircraft | CRJ9/M-SDE3EGILRW/L |
Departure
| Time | 2026-05-05 08:26 |
|---|---|
| Airport | Hohhot Baita International Airport (ZBHH) |
Arrival
| Time | 2026-05-05 09:27 |
|---|---|
| Airport | Chifeng Yulong Airport (ZBCF) |
| Time | Latitude | Longitude | Altitude | Speed | Heading |
|---|---|---|---|---|---|
| 2026-05-05 07:48 | 40.85298 | 111.81544 | 3532 ft | 0 kts | 343° |
| 2026-05-05 08:09 | 40.85294 | 111.81546 | 3533 ft | 2 kts | 343° |
| 2026-05-05 08:09 | 40.85276 | 111.81553 | 3523 ft | 3 kts | 343° |
| 2026-05-05 08:10 | 40.85260 | 111.81560 | 3533 ft | 2 kts | 342° |
| 2026-05-05 08:10 | 40.85246 | 111.81571 | 3533 ft | 3 kts | 307° |
| 2026-05-05 08:10 | 40.85239 | 111.81593 | 3533 ft | 3 kts | 274° |
| 2026-05-05 08:10 | 40.85241 | 111.81619 | 3533 ft | 3 kts | 255° |
| 2026-05-05 08:11 | 40.85245 | 111.81636 | 3533 ft | 1 kts | 252° |
| 2026-05-05 08:15 | 40.85244 | 111.81629 | 3532 ft | 2 kts | 252° |
| 2026-05-05 08:15 | 40.85238 | 111.81604 | 3532 ft | 4 kts | 252° |
| 2026-05-05 08:15 | 40.85228 | 111.81562 | 3532 ft | 6 kts | 252° |
| 2026-05-05 08:16 | 40.85213 | 111.81501 | 3532 ft | 8 kts | 252° |
| 2026-05-05 08:16 | 40.85201 | 111.81450 | 3532 ft | 6 kts | 252° |
| 2026-05-05 08:16 | 40.85197 | 111.81433 | 3532 ft | 1 kts | 252° |
| 2026-05-05 08:16 | 40.85192 | 111.81412 | 3532 ft | 3 kts | 254° |
| 2026-05-05 08:17 | 40.85189 | 111.81399 | 3532 ft | 1 kts | 253° |
| 2026-05-05 08:17 | 40.85184 | 111.81378 | 3532 ft | 3 kts | 253° |
| 2026-05-05 08:17 | 40.85181 | 111.81362 | 3532 ft | 0 kts | 251° |
| 2026-05-05 08:17 | 40.85180 | 111.81361 | 3532 ft | 1 kts | 251° |
| 2026-05-05 08:18 | 40.85177 | 111.81349 | 3532 ft | 2 kts | 252° |
| 2026-05-05 08:18 | 40.85170 | 111.81318 | 3532 ft | 5 kts | 252° |
| 2026-05-05 08:18 | 40.85155 | 111.81259 | 3532 ft | 8 kts | 252° |
| 2026-05-05 08:18 | 40.85136 | 111.81175 | 3532 ft | 11 kts | 253° |
| 2026-05-05 08:19 | 40.85109 | 111.81073 | 3532 ft | 12 kts | 237° |
| 2026-05-05 08:19 | 40.85041 | 111.81062 | 3532 ft | 10 kts | 163° |
| 2026-05-05 08:19 | 40.84976 | 111.81089 | 3532 ft | 10 kts | 162° |
| 2026-05-05 08:19 | 40.84913 | 111.81115 | 3532 ft | 9 kts | 162° |
| 2026-05-05 08:20 | 40.84866 | 111.81127 | 3532 ft | 3 kts | 197° |
| 2026-05-05 08:20 | 40.84841 | 111.81096 | 3531 ft | 8 kts | 240° |
| 2026-05-05 08:20 | 40.84819 | 111.81014 | 3531 ft | 11 kts | 253° |
| 2026-05-05 08:20 | 40.84798 | 111.80923 | 3531 ft | 10 kts | 253° |
| 2026-05-05 08:21 | 40.84777 | 111.80834 | 3531 ft | 10 kts | 253° |
| 2026-05-05 08:21 | 40.84757 | 111.80747 | 3531 ft | 10 kts | 253° |
| 2026-05-05 08:21 | 40.84734 | 111.80650 | 3531 ft | 12 kts | 252° |
| 2026-05-05 08:21 | 40.84706 | 111.80532 | 3531 ft | 14 kts | 252° |
| 2026-05-05 08:22 | 40.84675 | 111.80410 | 3531 ft | 14 kts | 244° |
| 2026-05-05 08:22 | 40.84610 | 111.80379 | 3530 ft | 5 kts | 168° |
| 2026-05-05 08:22 | 40.84583 | 111.80389 | 3529 ft | 3 kts | 162° |
| 2026-05-05 08:22 | 40.84548 | 111.80404 | 3527 ft | 7 kts | 162° |
| 2026-05-05 08:23 | 40.84504 | 111.80443 | 3526 ft | 7 kts | 107° |
| 2026-05-05 08:23 | 40.84508 | 111.80495 | 3526 ft | 1 kts | 73° |
| 2026-05-05 08:23 | 40.84510 | 111.80501 | 3526 ft | 1 kts | 71° |
| 2026-05-05 08:23 | 40.84511 | 111.80504 | 3526 ft | 0 kts | 71° |
| 2026-05-05 08:25 | 40.84511 | 111.80505 | 3526 ft | 2 kts | 71° |
| 2026-05-05 08:25 | 40.84569 | 111.80755 | 3525 ft | 57 kts | 73° |
| 2026-05-05 08:25 | 40.84739 | 111.81481 | 3525 ft | 107 kts | 72° |
| 2026-05-05 08:25 | 40.85008 | 111.82612 | 3523 ft | 149 kts | 72° |
| 2026-05-05 08:26 | 40.85333 | 111.84062 | 3556 ft | 176 kts | 76° |
| 2026-05-05 08:26 | 40.85654 | 111.85657 | 3795 ft | 185 kts | 78° |
| 2026-05-05 08:26 | 40.85985 | 111.87374 | 4052 ft | 199 kts | 74° |
| 2026-05-05 08:26 | 40.86441 | 111.89093 | 4567 ft | 196 kts | 69° |
| 2026-05-05 08:27 | 40.86909 | 111.90831 | 4945 ft | 207 kts | 70° |
| 2026-05-05 08:27 | 40.87396 | 111.92649 | 5366 ft | 211 kts | 72° |
| 2026-05-05 08:27 | 40.87865 | 111.94587 | 5616 ft | 237 kts | 75° |
| 2026-05-05 08:27 | 40.88366 | 111.96802 | 5973 ft | 265 kts | 75° |
| 2026-05-05 08:28 | 40.88903 | 111.99201 | 6646 ft | 278 kts | 75° |
| 2026-05-05 08:28 | 40.89454 | 112.01677 | 7519 ft | 283 kts | 73° |
| 2026-05-05 08:28 | 40.90041 | 112.04181 | 8401 ft | 287 kts | 73° |
| 2026-05-05 08:28 | 40.90657 | 112.06716 | 9273 ft | 291 kts | 72° |
| 2026-05-05 08:29 | 40.91276 | 112.09279 | 10110 ft | 294 kts | 71° |
| 2026-05-05 08:29 | 40.92250 | 112.11611 | 10767 ft | 300 kts | 44° |
| 2026-05-05 08:29 | 40.93855 | 112.13483 | 11360 ft | 310 kts | 35° |
| 2026-05-05 08:30 | 40.97293 | 112.17022 | 12984 ft | 314 kts | 34° |
| 2026-05-05 08:30 | 40.98978 | 112.18797 | 13799 ft | 315 kts | 34° |
| 2026-05-05 08:30 | 41.00686 | 112.20664 | 14442 ft | 321 kts | 36° |
| 2026-05-05 08:30 | 41.02402 | 112.22588 | 15082 ft | 326 kts | 36° |
| 2026-05-05 08:31 | 41.04145 | 112.24543 | 15731 ft | 330 kts | 36° |
| 2026-05-05 08:31 | 41.05915 | 112.26516 | 16352 ft | 335 kts | 36° |
| 2026-05-05 08:31 | 41.07714 | 112.28521 | 16981 ft | 340 kts | 36° |
| 2026-05-05 08:31 | 41.09533 | 112.30556 | 17565 ft | 345 kts | 36° |
| 2026-05-05 08:32 | 41.11377 | 112.32620 | 18178 ft | 349 kts | 36° |
| 2026-05-05 08:32 | 41.13233 | 112.34710 | 18734 ft | 352 kts | 37° |
| 2026-05-05 08:32 | 41.15105 | 112.36814 | 19291 ft | 354 kts | 36° |
| 2026-05-05 08:32 | 41.16992 | 112.38934 | 19823 ft | 357 kts | 36° |
| 2026-05-05 08:33 | 41.18893 | 112.41077 | 20362 ft | 359 kts | 36° |
| 2026-05-05 08:33 | 41.20809 | 112.43234 | 20857 ft | 363 kts | 36° |
| 2026-05-05 08:33 | 41.22740 | 112.45408 | 21352 ft | 365 kts | 36° |
| 2026-05-05 08:33 | 41.24686 | 112.47602 | 21834 ft | 369 kts | 36° |
| 2026-05-05 08:34 | 41.26647 | 112.49818 | 22334 ft | 372 kts | 36° |
| 2026-05-05 08:34 | 41.28624 | 112.52050 | 22799 ft | 374 kts | 36° |
| 2026-05-05 08:34 | 41.30618 | 112.54304 | 23252 ft | 377 kts | 36° |
| 2026-05-05 08:34 | 41.32621 | 112.56570 | 23644 ft | 380 kts | 36° |
| 2026-05-05 08:35 | 41.34640 | 112.58859 | 24023 ft | 382 kts | 36° |
| 2026-05-05 08:35 | 41.36669 | 112.61160 | 24391 ft | 385 kts | 36° |
| 2026-05-05 08:35 | 41.38714 | 112.63477 | 24749 ft | 387 kts | 36° |
| 2026-05-05 08:35 | 41.40771 | 112.65812 | 25106 ft | 390 kts | 36° |
| 2026-05-05 08:36 | 41.42842 | 112.68163 | 25466 ft | 392 kts | 36° |
| 2026-05-05 08:36 | 41.44918 | 112.70522 | 25804 ft | 395 kts | 35° |
| 2026-05-05 08:36 | 41.47024 | 112.72910 | 26026 ft | 401 kts | 35° |
| 2026-05-05 08:36 | 41.49181 | 112.75336 | 26134 ft | 410 kts | 35° |
| 2026-05-05 08:37 | 41.51398 | 112.77813 | 26168 ft | 419 kts | 35° |
| 2026-05-05 08:37 | 41.53616 | 112.80296 | 26185 ft | 425 kts | 35° |
| 2026-05-05 08:37 | 41.55903 | 112.82860 | 26191 ft | 432 kts | 35° |
| 2026-05-05 08:37 | 41.58218 | 112.85457 | 26191 ft | 439 kts | 35° |
| 2026-05-05 08:38 | 41.60580 | 112.88100 | 26195 ft | 446 kts | 36° |
| 2026-05-05 08:38 | 41.62976 | 112.90791 | 26182 ft | 453 kts | 36° |
| 2026-05-05 08:38 | 41.65404 | 112.93523 | 26180 ft | 458 kts | 36° |
| 2026-05-05 08:38 | 41.67842 | 112.96272 | 26169 ft | 459 kts | 36° |
| 2026-05-05 08:39 | 41.70289 | 112.99030 | 26158 ft | 460 kts | 36° |
| 2026-05-05 08:39 | 41.72738 | 113.01797 | 26153 ft | 462 kts | 36° |
| 2026-05-05 08:39 | 41.75196 | 113.04573 | 26149 ft | 463 kts | 36° |
| 2026-05-05 08:39 | 41.77659 | 113.07369 | 26146 ft | 464 kts | 36° |
| 2026-05-05 08:40 | 41.80079 | 113.10225 | 26133 ft | 463 kts | 38° |
| 2026-05-05 08:40 | 41.82201 | 113.13449 | 26118 ft | 466 kts | 54° |
| 2026-05-05 08:40 | 41.83632 | 113.17349 | 26123 ft | 467 kts | 66° |
| 2026-05-05 08:40 | 41.84670 | 113.21468 | 26124 ft | 465 kts | 71° |
| 2026-05-05 08:41 | 41.85359 | 113.25567 | 26115 ft | 464 kts | 80° |
| 2026-05-05 08:41 | 41.85695 | 113.29952 | 26114 ft | 462 kts | 85° |
| 2026-05-05 08:41 | 41.85904 | 113.34235 | 26109 ft | 459 kts | 85° |
| 2026-05-05 08:41 | 41.86138 | 113.38491 | 26103 ft | 456 kts | 83° |
| 2026-05-05 08:42 | 41.86449 | 113.42721 | 26104 ft | 455 kts | 82° |
| 2026-05-05 08:42 | 41.86794 | 113.46939 | 26097 ft | 454 kts | 82° |
| 2026-05-05 08:42 | 41.87121 | 113.51153 | 26095 ft | 454 kts | 82° |
| 2026-05-05 08:42 | 41.87439 | 113.55362 | 26094 ft | 453 kts | 82° |
| 2026-05-05 08:43 | 41.87758 | 113.59559 | 26096 ft | 452 kts | 82° |
| 2026-05-05 08:43 | 41.88077 | 113.63755 | 26094 ft | 452 kts | 82° |
| 2026-05-05 08:43 | 41.88393 | 113.67945 | 26094 ft | 451 kts | 82° |
| 2026-05-05 08:43 | 41.88707 | 113.72126 | 26091 ft | 451 kts | 82° |
| 2026-05-05 08:44 | 41.89022 | 113.76307 | 26086 ft | 450 kts | 82° |
| 2026-05-05 08:44 | 41.89333 | 113.80485 | 26085 ft | 449 kts | 82° |
| 2026-05-05 08:44 | 41.89639 | 113.84657 | 26086 ft | 449 kts | 82° |
| 2026-05-05 08:44 | 41.89947 | 113.88824 | 26085 ft | 448 kts | 82° |
| 2026-05-05 08:45 | 41.90252 | 113.92983 | 26085 ft | 448 kts | 82° |
| 2026-05-05 08:45 | 41.90555 | 113.97146 | 26081 ft | 448 kts | 82° |
| 2026-05-05 08:45 | 41.90857 | 114.01305 | 26077 ft | 447 kts | 82° |
| 2026-05-05 08:45 | 41.91158 | 114.05447 | 26076 ft | 447 kts | 82° |
| 2026-05-05 08:46 | 41.91451 | 114.09541 | 26076 ft | 447 kts | 82° |
| 2026-05-05 08:46 | 41.91748 | 114.13697 | 26077 ft | 446 kts | 82° |
| 2026-05-05 08:46 | 41.92044 | 114.17838 | 26082 ft | 446 kts | 82° |
| 2026-05-05 08:46 | 41.92337 | 114.21988 | 26082 ft | 446 kts | 82° |
| 2026-05-05 08:47 | 41.92629 | 114.26132 | 26078 ft | 446 kts | 82° |
| 2026-05-05 08:47 | 41.92919 | 114.30273 | 26083 ft | 446 kts | 82° |
| 2026-05-05 08:47 | 41.93209 | 114.34411 | 26083 ft | 445 kts | 82° |
| 2026-05-05 08:47 | 41.93496 | 114.38555 | 26079 ft | 445 kts | 82° |
| 2026-05-05 08:48 | 41.93780 | 114.42689 | 26085 ft | 446 kts | 82° |
| 2026-05-05 08:48 | 41.94065 | 114.46841 | 26087 ft | 446 kts | 82° |
| 2026-05-05 08:48 | 41.94348 | 114.50991 | 26075 ft | 446 kts | 82° |
| 2026-05-05 08:48 | 41.94628 | 114.55138 | 26083 ft | 446 kts | 82° |
| 2026-05-05 08:49 | 41.94910 | 114.59290 | 26077 ft | 447 kts | 83° |
| 2026-05-05 08:49 | 41.95190 | 114.63448 | 26087 ft | 447 kts | 82° |
| 2026-05-05 08:49 | 41.95469 | 114.67605 | 26077 ft | 447 kts | 83° |
| 2026-05-05 08:49 | 41.95743 | 114.71770 | 26077 ft | 447 kts | 83° |
| 2026-05-05 08:50 | 41.96019 | 114.75932 | 26088 ft | 448 kts | 83° |
| 2026-05-05 08:50 | 41.96293 | 114.80102 | 26085 ft | 448 kts | 83° |
| 2026-05-05 08:50 | 41.96565 | 114.84270 | 26083 ft | 448 kts | 83° |
| 2026-05-05 08:50 | 41.96834 | 114.88441 | 26078 ft | 448 kts | 83° |
| 2026-05-05 08:51 | 41.97012 | 114.91205 | 26080 ft | 448 kts | 83° |
| 2026-05-05 08:51 | 41.97372 | 114.96774 | 26078 ft | 448 kts | 83° |
| 2026-05-05 08:51 | 41.97637 | 115.00953 | 26086 ft | 449 kts | 82° |
| 2026-05-05 08:51 | 41.97814 | 115.03718 | 26078 ft | 449 kts | 83° |
| 2026-05-05 08:52 | 41.98077 | 115.07889 | 26080 ft | 449 kts | 83° |
| 2026-05-05 08:52 | 41.98339 | 115.12069 | 26081 ft | 449 kts | 83° |
| 2026-05-05 08:52 | 41.98602 | 115.16235 | 26095 ft | 449 kts | 82° |
| 2026-05-05 08:52 | 41.98861 | 115.20419 | 26096 ft | 449 kts | 83° |
| 2026-05-05 08:53 | 41.99118 | 115.24602 | 26096 ft | 449 kts | 83° |
| 2026-05-05 08:53 | 41.99374 | 115.28791 | 26090 ft | 450 kts | 83° |
| 2026-05-05 08:53 | 41.99630 | 115.32978 | 26088 ft | 450 kts | 83° |
| 2026-05-05 08:53 | 41.99887 | 115.37169 | 26081 ft | 450 kts | 82° |
| 2026-05-05 08:54 | 42.00144 | 115.41361 | 26078 ft | 450 kts | 83° |
| 2026-05-05 08:54 | 42.00393 | 115.45552 | 26082 ft | 450 kts | 83° |
| 2026-05-05 08:54 | 42.00638 | 115.49746 | 26086 ft | 450 kts | 82° |
| 2026-05-05 08:54 | 42.00888 | 115.53940 | 26089 ft | 450 kts | 83° |
| 2026-05-05 08:55 | 42.01134 | 115.58137 | 26088 ft | 450 kts | 83° |
| 2026-05-05 08:55 | 42.01379 | 115.62332 | 26094 ft | 450 kts | 83° |
| 2026-05-05 08:55 | 42.01621 | 115.66529 | 26083 ft | 450 kts | 83° |
| 2026-05-05 08:55 | 42.01862 | 115.70730 | 26080 ft | 450 kts | 83° |
| 2026-05-05 08:56 | 42.02105 | 115.74931 | 26094 ft | 450 kts | 83° |
| 2026-05-05 08:56 | 42.02344 | 115.79129 | 26096 ft | 450 kts | 83° |
| 2026-05-05 08:56 | 42.02581 | 115.83333 | 26088 ft | 450 kts | 83° |
| 2026-05-05 08:56 | 42.02816 | 115.87530 | 26097 ft | 450 kts | 83° |
| 2026-05-05 08:57 | 42.03053 | 115.91732 | 26096 ft | 450 kts | 83° |
| 2026-05-05 08:57 | 42.03287 | 115.95933 | 26092 ft | 451 kts | 83° |
| 2026-05-05 08:57 | 42.03517 | 116.00135 | 26094 ft | 451 kts | 83° |
| 2026-05-05 08:57 | 42.03747 | 116.04342 | 26102 ft | 451 kts | 83° |
| 2026-05-05 08:58 | 42.03976 | 116.08550 | 26096 ft | 451 kts | 83° |
| 2026-05-05 08:58 | 42.04029 | 116.09522 | 26106 ft | 451 kts | 83° |
| 2026-05-05 08:58 | 42.04182 | 116.12402 | 26101 ft | 451 kts | 83° |
| 2026-05-05 08:58 | 42.04437 | 116.16601 | 26101 ft | 451 kts | 82° |
| 2026-05-05 08:59 | 42.04756 | 116.20797 | 26107 ft | 451 kts | 81° |
| 2026-05-05 08:59 | 42.05078 | 116.24990 | 26098 ft | 451 kts | 81° |
| 2026-05-05 08:59 | 42.05385 | 116.29184 | 26106 ft | 451 kts | 81° |
| 2026-05-05 08:59 | 42.05684 | 116.33330 | 26106 ft | 451 kts | 81° |
| 2026-05-05 09:00 | 42.05990 | 116.37523 | 26104 ft | 451 kts | 81° |
| 2026-05-05 09:00 | 42.06294 | 116.41732 | 26107 ft | 451 kts | 81° |
| 2026-05-05 09:00 | 42.06596 | 116.45928 | 26108 ft | 451 kts | 81° |
| 2026-05-05 09:00 | 42.06898 | 116.50131 | 26125 ft | 451 kts | 81° |
| 2026-05-05 09:01 | 42.07200 | 116.54342 | 26110 ft | 452 kts | 81° |
| 2026-05-05 09:01 | 42.07498 | 116.58548 | 26117 ft | 452 kts | 81° |
| 2026-05-05 09:01 | 42.07798 | 116.62756 | 26118 ft | 450 kts | 81° |
| 2026-05-05 09:01 | 42.08091 | 116.66902 | 26126 ft | 443 kts | 81° |
| 2026-05-05 09:02 | 42.08378 | 116.71016 | 25917 ft | 441 kts | 81° |
| 2026-05-05 09:02 | 42.08664 | 116.75139 | 25569 ft | 444 kts | 82° |
| 2026-05-05 09:02 | 42.08953 | 116.79288 | 25220 ft | 446 kts | 82° |
| 2026-05-05 09:02 | 42.09238 | 116.83445 | 24883 ft | 449 kts | 82° |
| 2026-05-05 09:03 | 42.09524 | 116.87642 | 24544 ft | 451 kts | 82° |
| 2026-05-05 09:03 | 42.09807 | 116.91851 | 24187 ft | 453 kts | 82° |
| 2026-05-05 09:03 | 42.10094 | 116.96082 | 23854 ft | 455 kts | 82° |
| 2026-05-05 09:03 | 42.10378 | 117.00309 | 23535 ft | 457 kts | 83° |
| 2026-05-05 09:04 | 42.10664 | 117.04576 | 23216 ft | 457 kts | 83° |
| 2026-05-05 09:04 | 42.10945 | 117.08837 | 22846 ft | 457 kts | 83° |
| 2026-05-05 09:04 | 42.11227 | 117.13095 | 22455 ft | 456 kts | 83° |
| 2026-05-05 09:04 | 42.11509 | 117.17346 | 22075 ft | 456 kts | 83° |
| 2026-05-05 09:05 | 42.11785 | 117.21574 | 21689 ft | 451 kts | 83° |
| 2026-05-05 09:05 | 42.12055 | 117.25758 | 21319 ft | 446 kts | 83° |
| 2026-05-05 09:05 | 42.12330 | 117.29881 | 20923 ft | 441 kts | 83° |
| 2026-05-05 09:05 | 42.12494 | 117.32340 | 20698 ft | 439 kts | 83° |
| 2026-05-05 09:06 | 42.12502 | 117.32458 | 20687 ft | 439 kts | 83° |
| 2026-05-05 09:06 | 42.12772 | 117.36541 | 20312 ft | 436 kts | 83° |
| 2026-05-05 09:06 | 42.12985 | 117.39758 | 20029 ft | 433 kts | 83° |
| 2026-05-05 09:06 | 42.13102 | 117.41518 | 19884 ft | 432 kts | 83° |
| 2026-05-05 09:07 | 42.13296 | 117.44469 | 19608 ft | 430 kts | 83° |
| 2026-05-05 09:07 | 42.13555 | 117.48407 | 19251 ft | 426 kts | 84° |
| 2026-05-05 09:07 | 42.13804 | 117.52338 | 18895 ft | 417 kts | 83° |
| 2026-05-05 09:07 | 42.13923 | 117.54167 | 18723 ft | 413 kts | 83° |
| 2026-05-05 09:08 | 42.14171 | 117.57989 | 18370 ft | 406 kts | 84° |
| 2026-05-05 09:08 | 42.14411 | 117.61757 | 18024 ft | 401 kts | 84° |
| 2026-05-05 09:08 | 42.14647 | 117.65473 | 17650 ft | 395 kts | 84° |
| 2026-05-05 09:08 | 42.14879 | 117.69138 | 17278 ft | 391 kts | 84° |
| 2026-05-05 09:09 | 42.15107 | 117.72773 | 16897 ft | 387 kts | 84° |
| 2026-05-05 09:09 | 42.15333 | 117.76369 | 16519 ft | 383 kts | 84° |
| 2026-05-05 09:09 | 42.15557 | 117.79920 | 16112 ft | 380 kts | 84° |
| 2026-05-05 09:09 | 42.15774 | 117.83448 | 15744 ft | 377 kts | 84° |
| 2026-05-05 09:10 | 42.15988 | 117.86949 | 15345 ft | 374 kts | 84° |
| 2026-05-05 09:10 | 42.16200 | 117.90427 | 14980 ft | 371 kts | 84° |
| 2026-05-05 09:10 | 42.16413 | 117.93876 | 14605 ft | 368 kts | 84° |
| 2026-05-05 09:10 | 42.16622 | 117.97305 | 14256 ft | 366 kts | 84° |
| 2026-05-05 09:11 | 42.16829 | 118.00710 | 13879 ft | 364 kts | 85° |
| 2026-05-05 09:11 | 42.17032 | 118.04097 | 13529 ft | 362 kts | 85° |
| 2026-05-05 09:11 | 42.17233 | 118.07466 | 13147 ft | 359 kts | 84° |
| 2026-05-05 09:11 | 42.17435 | 118.10798 | 12772 ft | 356 kts | 84° |
| 2026-05-05 09:12 | 42.17636 | 118.14112 | 12397 ft | 353 kts | 85° |
| 2026-05-05 09:12 | 42.17833 | 118.17401 | 12026 ft | 351 kts | 85° |
| 2026-05-05 09:12 | 42.18020 | 118.20665 | 11603 ft | 348 kts | 85° |
| 2026-05-05 09:12 | 42.18203 | 118.23906 | 11221 ft | 346 kts | 85° |
| 2026-05-05 09:13 | 42.18375 | 118.27112 | 10984 ft | 339 kts | 87° |
| 2026-05-05 09:13 | 42.18464 | 118.30248 | 10874 ft | 329 kts | 89° |
| 2026-05-05 09:13 | 42.18484 | 118.33289 | 10790 ft | 319 kts | 90° |
| 2026-05-05 09:13 | 42.18482 | 118.36232 | 10780 ft | 309 kts | 90° |
| 2026-05-05 09:14 | 42.18486 | 118.39095 | 10757 ft | 301 kts | 90° |
| 2026-05-05 09:14 | 42.18503 | 118.41919 | 10561 ft | 307 kts | 88° |
| 2026-05-05 09:14 | 42.18546 | 118.44835 | 10237 ft | 316 kts | 89° |
| 2026-05-05 09:14 | 42.18604 | 118.47828 | 9893 ft | 322 kts | 88° |
| 2026-05-05 09:15 | 42.18681 | 118.50859 | 9519 ft | 326 kts | 84° |
| 2026-05-05 09:15 | 42.19370 | 118.53721 | 9089 ft | 320 kts | 54° |
| 2026-05-05 09:15 | 42.20749 | 118.56027 | 8727 ft | 314 kts | 44° |
| 2026-05-05 09:15 | 42.22222 | 118.58198 | 8362 ft | 312 kts | 44° |
| 2026-05-05 09:16 | 42.23647 | 118.60329 | 7999 ft | 308 kts | 45° |
| 2026-05-05 09:16 | 42.25030 | 118.62554 | 7629 ft | 305 kts | 49° |
| 2026-05-05 09:16 | 42.26320 | 118.64769 | 7279 ft | 302 kts | 50° |
| 2026-05-05 09:16 | 42.27598 | 118.67007 | 6969 ft | 300 kts | 51° |
| 2026-05-05 09:17 | 42.28872 | 118.69211 | 6645 ft | 297 kts | 50° |
| 2026-05-05 09:17 | 42.30145 | 118.71399 | 6256 ft | 295 kts | 50° |
| 2026-05-05 09:17 | 42.31405 | 118.73529 | 6017 ft | 287 kts | 50° |
| 2026-05-05 09:17 | 42.32632 | 118.75576 | 5879 ft | 273 kts | 50° |
| 2026-05-05 09:18 | 42.33798 | 118.77563 | 5815 ft | 266 kts | 51° |
| 2026-05-05 09:18 | 42.34925 | 118.79493 | 5801 ft | 258 kts | 50° |
| 2026-05-05 09:18 | 42.36019 | 118.81358 | 5805 ft | 247 kts | 50° |
| 2026-05-05 09:18 | 42.37053 | 118.83185 | 5770 ft | 244 kts | 60° |
| 2026-05-05 09:19 | 42.37483 | 118.85337 | 5487 ft | 231 kts | 102° |
| 2026-05-05 09:19 | 42.36973 | 118.87208 | 5330 ft | 198 kts | 135° |
| 2026-05-05 09:19 | 42.36254 | 118.88754 | 5109 ft | 191 kts | 133° |
| 2026-05-05 09:19 | 42.35620 | 118.90278 | 4986 ft | 185 kts | 129° |
| 2026-05-05 09:20 | 42.35060 | 118.91826 | 4920 ft | 181 kts | 127° |
| 2026-05-05 09:20 | 42.34439 | 118.93223 | 4822 ft | 162 kts | 152° |
| 2026-05-05 09:20 | 42.33495 | 118.93572 | 4588 ft | 136 kts | 197° |
| 2026-05-05 09:20 | 42.32615 | 118.93332 | 4362 ft | 121 kts | 203° |
| 2026-05-05 09:21 | 42.31849 | 118.93009 | 4096 ft | 111 kts | 206° |
| 2026-05-05 09:21 | 42.31152 | 118.92668 | 3875 ft | 105 kts | 210° |
| 2026-05-05 09:21 | 42.30469 | 118.92288 | 3823 ft | 105 kts | 211° |
| 2026-05-05 09:21 | 42.29804 | 118.91899 | 3748 ft | 104 kts | 211° |
| 2026-05-05 09:22 | 42.29134 | 118.91499 | 3713 ft | 105 kts | 211° |
| 2026-05-05 09:22 | 42.28470 | 118.91115 | 3711 ft | 103 kts | 210° |
| 2026-05-05 09:22 | 42.27784 | 118.90754 | 3609 ft | 109 kts | 207° |
| 2026-05-05 09:22 | 42.27052 | 118.90444 | 3585 ft | 111 kts | 205° |
| 2026-05-05 09:23 | 42.26303 | 118.90117 | 3510 ft | 115 kts | 207° |
| 2026-05-05 09:23 | 42.25586 | 118.89719 | 3489 ft | 112 kts | 211° |
| 2026-05-05 09:23 | 42.24881 | 118.89202 | 3310 ft | 115 kts | 214° |
| 2026-05-05 09:23 | 42.24184 | 118.88672 | 3154 ft | 120 kts | 208° |
| 2026-05-05 09:24 | 42.23385 | 118.88287 | 2955 ft | 123 kts | 202° |
| 2026-05-05 09:24 | 42.22618 | 118.87869 | 2835 ft | 119 kts | 207° |
| 2026-05-05 09:24 | 42.21850 | 118.87375 | 2722 ft | 125 kts | 206° |
| 2026-05-05 09:24 | 42.21023 | 118.86916 | 2696 ft | 133 kts | 202° |
| 2026-05-05 09:25 | 42.20173 | 118.86504 | 2638 ft | 127 kts | 204° |
| 2026-05-05 09:25 | 42.19595 | 118.86146 | 2501 ft | 122 kts | 208° |
| 2026-05-05 09:26 | 42.19428 | 118.86036 | 2459 ft | 121 kts | 208° |
| 2026-05-05 09:26 | 42.18648 | 118.85580 | 2300 ft | 124 kts | 201° |
| 2026-05-05 09:26 | 42.17852 | 118.85133 | 2185 ft | 120 kts | 207° |
| 2026-05-05 09:26 | 42.17146 | 118.84740 | 2054 ft | 100 kts | 206° |
| 2026-05-05 09:27 | 42.16508 | 118.84385 | 2046 ft | 94 kts | 204° |
| 2026-05-05 09:27 | 42.16128 | 118.84166 | 2047 ft | 41 kts | 203° |
| 2026-05-05 09:27 | 42.15894 | 118.84040 | 2050 ft | 32 kts | 201° |
| 2026-05-05 09:27 | 42.15704 | 118.83936 | 2046 ft | 27 kts | 202° |
| 2026-05-05 09:28 | 42.15544 | 118.83848 | 2044 ft | 23 kts | 202° |
| 2026-05-05 09:28 | 42.15405 | 118.83770 | 2045 ft | 20 kts | 202° |
| 2026-05-05 09:28 | 42.15278 | 118.83699 | 2048 ft | 19 kts | 202° |
| 2026-05-05 09:28 | 42.15161 | 118.83634 | 2049 ft | 17 kts | 202° |
| 2026-05-05 09:29 | 42.15057 | 118.83575 | 2048 ft | 16 kts | 203° |
| 2026-05-05 09:29 | 42.14973 | 118.83506 | 2045 ft | 12 kts | 233° |
| 2026-05-05 09:29 | 42.14968 | 118.83457 | 2048 ft | 4 kts | 290° |
| 2026-05-05 09:29 | 42.14976 | 118.83421 | 2046 ft | 4 kts | 289° |
| 2026-05-05 09:30 | 42.14983 | 118.83397 | 2045 ft | 0 kts | 291° |
| 2026-05-05 09:30 | 42.14985 | 118.83389 | 2048 ft | 1 kts | 291° |
| 2026-05-05 09:30 | 42.14990 | 118.83372 | 2047 ft | 2 kts | 291° |
| 2026-05-05 09:30 | 42.14994 | 118.83360 | 2044 ft | 0 kts | 291° |
| 2026-05-05 09:31 | 42.14994 | 118.83359 | 2044 ft | 0 kts | 291° |
| 2026-05-05 09:31 | 42.14996 | 118.83352 | 2046 ft | 1 kts | 291° |
| 2026-05-05 09:31 | 42.15001 | 118.83337 | 2047 ft | 2 kts | 292° |
| 2026-05-05 09:31 | 42.15009 | 118.83310 | 2043 ft | 4 kts | 294° |
| 2026-05-05 09:32 | 42.15013 | 118.83299 | 2044 ft | 1 kts | 293° |
| 2026-05-05 09:32 | 42.15018 | 118.83282 | 2047 ft | 3 kts | 293° |
| 2026-05-05 09:32 | 42.15031 | 118.83254 | 2047 ft | 5 kts | 317° |
| 2026-05-05 09:32 | 42.15072 | 118.83249 | 2046 ft | 7 kts | 16° |
| 2026-05-05 09:33 | 42.15090 | 118.83258 | 2046 ft | 0 kts | 21° |
| 2026-05-05 09:33 | 42.15096 | 118.83261 | 2046 ft | 1 kts | 21° |
| 2026-05-05 09:33 | 42.15102 | 118.83264 | 2046 ft | 0 kts | 21° |
| 2026-05-05 09:33 | 42.15103 | 118.83265 | 2046 ft | 1 kts | 21° |
| 2026-05-05 09:34 | 42.15105 | 118.83266 | 2046 ft | 0 kts | 21° |
| 2026-05-05 09:34 | 42.15110 | 118.83269 | 2047 ft | 2 kts | 21° |
| 2026-05-05 09:34 | 42.15118 | 118.83273 | 2047 ft | 0 kts | 21° |
| 2026-05-05 09:34 | 42.15119 | 118.83273 | 2045 ft | 0 kts | 21° |
| 2026-05-05 09:35 | 42.15127 | 118.83278 | 2045 ft | 3 kts | 20° |
| 2026-05-05 09:35 | 42.15162 | 118.83263 | 2044 ft | 2 kts | 317° |
| 2026-05-05 09:35 | 42.15173 | 118.83241 | 2049 ft | 0 kts | 291° |
| 2026-05-05 09:36 | 42.15176 | 118.83231 | 2048 ft | 0 kts | 291° |
| 2026-05-05 09:36 | 42.15177 | 118.83227 | 2047 ft | 0 kts | 292° |
| 2026-05-05 10:14 | 42.15177 | 118.83226 | 2043 ft | 0 kts | 292° |